createdAt,value
2023-02-28T00:14:35.936Z,23.90
2023-02-28T00:15:36.034Z,23.96
2023-02-28T00:16:36.190Z,23.92
2023-02-28T00:17:36.179Z,23.87
2023-02-28T00:18:36.260Z,23.94
2023-02-28T00:19:36.345Z,23.86
2023-02-28T00:20:36.413Z,23.89
2023-02-28T00:21:36.512Z,23.90
2023-02-28T00:22:36.570Z,23.89
2023-02-28T00:23:36.739Z,23.86
2023-02-28T00:24:36.744Z,23.89
2023-02-28T00:25:36.830Z,23.83
2023-02-28T00:26:36.903Z,23.86
2023-02-28T00:27:36.976Z,23.85
2023-02-28T00:28:37.074Z,23.86
2023-02-28T00:29:37.140Z,23.85
2023-02-28T00:30:37.241Z,23.87
2023-02-28T00:31:37.311Z,23.87
2023-02-28T00:32:37.446Z,23.87
2023-02-28T00:33:37.485Z,23.85
2023-02-28T00:34:37.552Z,23.84
2023-02-28T00:35:37.643Z,23.84
2023-02-28T00:36:37.709Z,23.76
2023-02-28T00:37:37.795Z,23.82
2023-02-28T00:38:37.886Z,23.80
2023-02-28T00:39:37.957Z,23.85
2023-02-28T00:58:39.450Z,23.79
2023-02-28T00:59:39.526Z,23.79
2023-02-28T01:00:39.613Z,23.73
2023-02-28T01:01:39.761Z,23.75
2023-02-28T01:02:39.785Z,23.82
2023-02-28T01:03:39.861Z,23.76
2023-02-28T01:04:40.081Z,23.77
2023-02-28T01:05:40.012Z,23.73
2023-02-28T01:06:40.099Z,23.74
2023-02-28T01:07:40.168Z,23.76
2023-02-28T01:08:40.258Z,23.72
2023-02-28T01:09:40.332Z,23.74
2023-02-28T01:10:40.411Z,23.75
2023-02-28T01:11:40.527Z,23.74
2023-02-28T01:12:40.554Z,23.75
2023-02-28T01:13:40.637Z,23.72
2023-02-28T01:14:40.709Z,23.72
2023-02-28T01:15:40.812Z,23.70
2023-02-28T01:16:40.877Z,23.69
2023-02-28T01:17:40.954Z,23.68
2023-02-28T01:18:41.032Z,23.70
2023-02-28T01:19:41.109Z,23.72
2023-02-28T01:20:41.193Z,23.70
2023-02-28T01:21:41.275Z,23.69
2023-02-28T01:22:41.370Z,23.66
2023-02-28T01:23:41.429Z,23.72
2023-02-28T01:24:41.504Z,23.65
2023-02-28T01:25:41.597Z,23.63
2023-02-28T01:26:41.666Z,23.68
2023-02-28T01:27:41.743Z,23.65
2023-02-28T01:28:41.827Z,23.66
2023-02-28T01:29:41.901Z,23.70
2023-02-28T01:30:41.988Z,23.65
2023-02-28T01:31:42.062Z,23.65
2023-02-28T01:32:42.158Z,23.69
2023-02-28T01:33:42.238Z,23.63
2023-02-28T01:34:42.314Z,23.69
2023-02-28T02:14:46.228Z,23.49
2023-02-28T02:19:45.982Z,23.48
2023-02-28T02:20:46.052Z,23.46
2023-02-28T02:21:46.136Z,23.43
2023-02-28T02:22:46.233Z,23.48
2023-02-28T02:23:46.320Z,23.45
2023-02-28T02:24:46.405Z,23.43
2023-02-28T02:25:46.497Z,23.52
2023-02-28T02:26:46.584Z,23.53
2023-02-28T02:27:46.675Z,23.49
2023-02-28T02:28:46.833Z,23.47
2023-02-28T02:29:46.835Z,23.46
2023-02-28T02:30:46.923Z,23.48
2023-02-28T02:31:47.109Z,23.52
2023-02-28T02:32:47.085Z,23.50
2023-02-28T02:33:47.166Z,23.47
2023-02-28T02:34:47.248Z,23.49
2023-02-28T02:35:47.407Z,23.45
2023-02-28T02:36:48.218Z,23.48
2023-02-28T02:37:47.503Z,23.45
2023-02-28T02:38:47.585Z,23.48
2023-02-28T02:39:47.675Z,23.39
2023-02-28T02:40:47.745Z,23.48
2023-02-28T02:41:47.834Z,23.42
2023-02-28T02:42:47.907Z,23.43
2023-02-28T02:43:47.990Z,23.42
2023-02-28T02:44:48.085Z,23.45
2023-02-28T02:45:48.160Z,23.39
2023-02-28T02:46:48.289Z,23.46
2023-02-28T02:47:48.344Z,23.43
2023-02-28T02:48:48.430Z,23.39
2023-02-28T02:49:48.518Z,23.41
2023-02-28T02:50:48.590Z,23.45
2023-02-28T02:51:49.217Z,23.37
2023-02-28T02:52:48.752Z,23.36
2023-02-28T02:53:48.828Z,23.40
2023-02-28T02:54:48.918Z,23.39
2023-02-28T02:55:49.000Z,23.39
2023-02-28T02:56:49.097Z,23.37
2023-02-28T02:57:49.178Z,23.40
2023-02-28T02:58:49.274Z,23.42
2023-02-28T02:59:49.333Z,23.39
2023-02-28T03:00:49.449Z,23.33
2023-02-28T03:01:49.514Z,23.38
2023-02-28T03:02:49.607Z,23.36
2023-02-28T03:03:49.741Z,23.35
2023-02-28T03:04:49.774Z,23.36
2023-02-28T03:05:49.867Z,23.40
2023-02-28T03:06:49.940Z,23.37
2023-02-28T03:07:50.238Z,23.32
2023-02-28T03:08:50.104Z,23.36
2023-02-28T03:09:50.193Z,23.35
2023-02-28T03:10:50.288Z,23.39
2023-02-28T03:11:50.354Z,23.36
2023-02-28T03:12:50.758Z,23.32
2023-02-28T03:13:50.542Z,23.30
2023-02-28T03:14:50.622Z,23.33
2023-02-28T03:15:50.705Z,23.29
2023-02-28T03:16:50.790Z,23.35
2023-02-28T03:17:50.883Z,23.37
2023-02-28T03:18:50.973Z,23.30
2023-02-28T03:19:51.066Z,23.30
2023-02-28T03:20:51.158Z,23.33
2023-02-28T03:21:51.277Z,23.33
2023-02-28T03:22:51.749Z,23.30
2023-02-28T03:23:52.238Z,23.35
2023-02-28T03:24:51.514Z,23.36
2023-02-28T03:25:51.609Z,23.35
2023-02-28T03:26:51.724Z,23.39
2023-02-28T03:27:51.780Z,23.36
2023-02-28T03:28:51.872Z,23.35
2023-02-28T03:29:51.952Z,23.36
2023-02-28T04:09:55.493Z,23.30
2023-02-28T04:10:55.553Z,23.30
2023-02-28T04:11:55.613Z,23.30
2023-02-28T04:12:55.688Z,23.32
2023-02-28T04:13:55.746Z,23.32
2023-02-28T04:14:55.802Z,23.28
2023-02-28T04:15:56.822Z,23.30
2023-02-28T04:16:55.911Z,23.32
2023-02-28T04:17:56.823Z,23.34
2023-02-28T04:18:56.018Z,23.32
2023-02-28T04:19:56.043Z,23.27
2023-02-28T04:20:56.087Z,23.36
2023-02-28T04:21:56.159Z,23.32
2023-02-28T04:22:56.184Z,23.32
2023-02-28T04:23:56.242Z,23.34
2023-02-28T04:24:56.291Z,23.35
2023-02-28T04:25:56.318Z,23.35
2023-02-28T04:26:56.385Z,23.31
2023-02-28T04:27:56.403Z,23.34
2023-02-28T04:28:56.457Z,23.34
2023-02-28T04:29:56.504Z,23.30
2023-02-28T04:30:56.550Z,23.34
2023-02-28T04:31:56.716Z,23.35
2023-02-28T04:32:56.630Z,23.34
2023-02-28T04:33:56.682Z,23.31
2023-02-28T04:34:56.738Z,23.30
2023-02-28T04:35:56.891Z,23.32
2023-02-28T04:37:11.829Z,23.29
2023-02-28T04:37:57.852Z,23.31
2023-02-28T04:38:56.885Z,23.30
2023-02-28T04:39:56.919Z,23.32
2023-02-28T04:40:56.937Z,23.26
2023-02-28T04:41:56.962Z,23.29
2023-02-28T04:42:56.997Z,23.30
2023-02-28T04:43:57.022Z,23.23
2023-02-28T04:44:57.056Z,23.29
2023-02-28T04:45:57.132Z,23.26
2023-02-28T04:46:57.115Z,23.31
2023-02-28T04:47:57.137Z,23.27
2023-02-28T04:48:57.165Z,23.26
2023-02-28T04:49:57.194Z,23.21
2023-02-28T04:50:57.227Z,23.24
2023-02-28T04:51:57.258Z,23.25
2023-02-28T04:52:57.285Z,23.21
2023-02-28T04:53:57.322Z,23.20
2023-02-28T04:54:57.347Z,23.27
2023-02-28T04:55:57.382Z,23.23
2023-02-28T04:56:57.415Z,23.19
2023-02-28T04:57:57.443Z,23.23
2023-02-28T04:58:57.473Z,23.23
2023-02-28T04:59:57.510Z,23.21
2023-02-28T05:00:57.531Z,23.21
2023-02-28T05:01:57.678Z,23.21
2023-02-28T05:02:57.614Z,23.20
2023-02-28T05:03:57.636Z,23.20
2023-02-28T05:04:57.697Z,23.23
2023-02-28T05:05:57.702Z,23.19
2023-02-28T05:06:57.730Z,23.20
2023-02-28T05:07:57.759Z,23.20
2023-02-28T05:08:57.785Z,23.20
2023-02-28T05:09:57.829Z,23.18
2023-02-28T05:10:57.857Z,23.16
2023-02-28T05:11:57.878Z,23.20
2023-02-28T05:12:57.906Z,23.19
2023-02-28T05:13:57.956Z,23.15
2023-02-28T05:14:57.984Z,23.19
2023-02-28T05:15:58.062Z,23.17
2023-02-28T05:16:58.057Z,23.15
2023-02-28T05:17:58.072Z,23.19
2023-02-28T05:18:58.199Z,23.12
2023-02-28T05:20:09.743Z,23.14
2023-02-28T05:20:59.176Z,23.12
2023-02-28T05:21:58.227Z,23.11
2023-02-28T05:22:58.255Z,23.07
2023-02-28T05:23:58.284Z,23.14
2023-02-28T05:24:58.316Z,23.11
2023-02-28T05:25:58.348Z,23.09
2023-02-28T05:26:58.381Z,23.08
2023-02-28T05:27:58.460Z,23.08
2023-02-28T05:28:58.442Z,23.08
2023-02-28T05:29:59.294Z,23.08
2023-02-28T05:30:58.496Z,23.06
2023-02-28T05:31:58.621Z,23.11
2023-02-28T05:32:58.540Z,23.11
2023-02-28T05:33:58.571Z,23.03
2023-02-28T05:34:58.785Z,23.06
2023-02-28T05:35:58.705Z,23.10
2023-02-28T05:36:58.672Z,23.09
2023-02-28T05:37:58.702Z,23.07
2023-02-28T05:38:58.739Z,23.12
2023-02-28T05:39:58.772Z,23.12
2023-02-28T05:40:58.820Z,23.03
2023-02-28T05:41:58.838Z,23.09
2023-02-28T05:42:58.868Z,23.11
2023-02-28T05:43:58.891Z,23.14
2023-02-28T05:44:58.929Z,23.12
2023-02-28T06:21:01.198Z,23.22
2023-02-28T06:23:01.377Z,23.72
2023-02-28T06:25:01.492Z,23.53
2023-02-28T06:26:01.590Z,23.85
2023-02-28T06:27:01.669Z,23.84
2023-02-28T06:28:01.752Z,24.20
2023-02-28T06:29:01.839Z,24.44
2023-02-28T06:30:01.919Z,24.33
2023-02-28T06:31:02.055Z,24.50
2023-02-28T06:32:02.126Z,24.47
2023-02-28T06:33:02.156Z,24.48
2023-02-28T06:34:02.231Z,24.41
2023-02-28T06:35:02.285Z,24.45
2023-02-28T06:37:02.421Z,24.41
2023-02-28T06:38:02.497Z,24.41
2023-02-28T06:52:03.333Z,24.19
2023-02-28T06:53:03.398Z,24.23
2023-02-28T06:54:03.532Z,24.20
2023-02-28T06:55:03.517Z,24.20
2023-02-28T06:56:03.595Z,24.14
2023-02-28T06:57:03.634Z,24.09
2023-02-28T06:58:04.319Z,24.09
2023-02-28T06:59:03.749Z,24.10
2023-02-28T07:00:04.330Z,24.05
2023-02-28T07:01:03.870Z,24.07
2023-02-28T07:02:03.924Z,24.07
2023-02-28T07:03:04.045Z,24.04
2023-02-28T07:04:04.036Z,24.03
2023-02-28T07:05:04.116Z,23.96
2023-02-28T07:06:04.160Z,23.95
2023-02-28T07:07:04.214Z,23.96
2023-02-28T07:08:04.257Z,23.93
2023-02-28T07:09:04.330Z,23.93
2023-02-28T07:10:04.378Z,23.92
2023-02-28T07:11:04.465Z,23.88
2023-02-28T07:12:04.480Z,23.85
2023-02-28T07:13:04.539Z,23.85
2023-02-28T07:14:04.626Z,23.85
2023-02-28T07:15:04.649Z,23.79
2023-02-28T07:16:04.757Z,23.81
2023-02-28T07:17:04.815Z,23.79
2023-02-28T07:18:04.829Z,23.81
2023-02-28T07:19:04.883Z,23.82
2023-02-28T07:20:04.943Z,23.74
2023-02-28T07:21:05.002Z,23.77
2023-02-28T07:22:05.066Z,23.71
2023-02-28T07:24:05.189Z,23.73
2023-02-28T10:05:12.968Z,33.01
2023-02-28T10:16:13.388Z,34.28
2023-02-28T10:17:13.430Z,34.47
2023-02-28T10:18:13.849Z,34.51
2023-02-28T10:19:13.579Z,34.45
2023-02-28T10:20:13.597Z,34.21
2023-02-28T10:21:13.626Z,34.31
2023-02-28T10:22:13.794Z,34.35
2023-02-28T10:23:13.747Z,34.51
2023-02-28T10:24:13.834Z,34.56
2023-02-28T10:29:14.238Z,35.19
2023-02-28T10:31:14.482Z,35.15
2023-02-28T10:32:14.509Z,35.08
2023-02-28T10:33:14.542Z,34.95
2023-02-28T10:34:14.585Z,34.92
2023-02-28T10:35:14.621Z,35.00
2023-02-28T10:36:14.728Z,35.02
2023-02-28T10:37:14.763Z,35.01
2023-02-28T10:38:14.926Z,35.07
2023-02-28T10:39:14.911Z,35.14
2023-02-28T10:40:14.974Z,35.31
2023-02-28T10:41:15.150Z,35.29
2023-02-28T10:42:15.121Z,35.41
2023-02-28T10:43:15.200Z,35.51
2023-02-28T10:44:15.286Z,35.53
2023-02-28T10:45:15.376Z,35.71
2023-02-28T10:46:15.481Z,35.71
2023-02-28T10:47:15.631Z,35.85
2023-02-28T10:48:15.591Z,35.98
2023-02-28T10:49:15.716Z,36.08
2023-02-28T10:50:15.763Z,36.14
2023-02-28T10:51:15.865Z,36.29
2023-02-28T10:52:15.927Z,36.40
2023-02-28T10:53:16.022Z,36.50
2023-02-28T12:31:23.469Z,32.09
2023-02-28T12:32:23.639Z,32.01
2023-02-28T12:33:23.825Z,31.97
2023-02-28T12:34:23.661Z,31.98
2023-02-28T12:35:23.764Z,31.90
2023-02-28T12:36:23.895Z,31.91
2023-02-28T12:37:23.945Z,31.91
2023-02-28T12:38:24.186Z,31.92
2023-02-28T12:39:24.192Z,31.86
2023-02-28T12:40:24.215Z,31.88
2023-02-28T12:41:24.313Z,31.89
2023-02-28T12:42:24.463Z,31.81
2023-02-28T12:43:24.520Z,31.79
2023-02-28T12:44:24.574Z,31.82
2023-02-28T12:45:25.485Z,31.75
2023-02-28T12:46:24.842Z,31.75
2023-02-28T12:47:24.848Z,31.79
2023-02-28T12:48:24.953Z,31.66
2023-02-28T12:49:25.048Z,31.61
2023-02-28T12:50:25.149Z,31.51
2023-02-28T12:51:25.214Z,31.47
2023-02-28T12:52:25.312Z,31.46
2023-02-28T12:53:25.412Z,31.41
2023-02-28T12:54:25.503Z,31.36
2023-02-28T12:55:25.593Z,31.31
2023-02-28T12:56:25.688Z,31.21
2023-02-28T12:57:25.799Z,31.36
2023-02-28T12:58:25.893Z,31.24
2023-02-28T12:59:25.955Z,31.49
2023-02-28T13:00:26.048Z,31.65
2023-02-28T13:01:26.131Z,31.89
2023-02-28T13:03:26.247Z,31.48
2023-02-28T13:04:26.289Z,30.58
2023-02-28T13:05:26.354Z,30.94
2023-02-28T13:06:26.411Z,30.84
2023-02-28T13:09:26.540Z,30.77
2023-02-28T13:33:27.492Z,30.20
2023-02-28T13:34:27.425Z,30.18
2023-02-28T13:35:27.469Z,30.18
2023-02-28T13:36:27.496Z,30.12
2023-02-28T13:37:27.550Z,30.09
2023-02-28T13:39:27.643Z,30.05
2023-02-28T13:40:27.679Z,30.01
2023-02-28T13:41:27.975Z,29.94
2023-02-28T13:42:27.763Z,29.90
2023-02-28T13:43:35.768Z,29.90
2023-02-28T13:44:28.838Z,29.88
2023-02-28T13:45:27.871Z,29.82
2023-02-28T13:46:27.945Z,29.78
2023-02-28T13:47:27.935Z,29.75
2023-02-28T13:48:27.944Z,29.75
2023-02-28T13:49:27.973Z,29.81
2023-02-28T13:50:28.040Z,29.78
2023-02-28T13:51:28.328Z,29.74
2023-02-28T13:52:28.058Z,29.70
2023-02-28T13:53:28.082Z,29.67
2023-02-28T13:54:28.967Z,29.67
2023-02-28T13:55:28.141Z,29.67
2023-02-28T13:56:28.455Z,29.60
2023-02-28T13:57:28.272Z,29.60
2023-02-28T13:58:28.264Z,29.60
2023-02-28T13:59:28.278Z,29.53
2023-02-28T14:00:28.304Z,29.47
2023-02-28T14:01:28.916Z,29.46
2023-02-28T14:02:28.504Z,29.43
2023-02-28T14:03:28.547Z,29.46
2023-02-28T14:04:28.598Z,29.46
2023-02-28T14:05:28.616Z,29.39
2023-02-28T14:06:28.975Z,29.43
2023-02-28T14:07:28.770Z,29.36
2023-02-28T14:08:28.801Z,29.33
2023-02-28T14:09:28.838Z,29.31
2023-02-28T14:10:28.905Z,29.26
2023-02-28T14:11:28.956Z,29.29
2023-02-28T14:12:29.021Z,29.19
2023-02-28T14:13:29.098Z,29.15
2023-02-28T14:14:29.153Z,29.18
2023-02-28T14:15:29.195Z,29.16
2023-02-28T14:16:29.540Z,29.23
2023-02-28T14:17:29.976Z,29.12
2023-02-28T14:18:29.396Z,29.09
2023-02-28T14:19:29.470Z,29.18
2023-02-28T14:20:29.532Z,29.08
2023-02-28T14:21:29.578Z,28.99
2023-02-28T14:22:29.645Z,28.99
2023-02-28T14:23:29.676Z,28.95
2023-02-28T14:24:29.713Z,28.91
2023-02-28T14:25:29.789Z,28.93
2023-02-28T14:26:30.197Z,28.87
2023-02-28T14:27:29.887Z,28.85
2023-02-28T14:28:29.967Z,28.87
2023-02-28T14:29:30.014Z,28.84
2023-02-28T14:30:30.054Z,28.80
2023-02-28T14:31:30.156Z,28.81
2023-02-28T14:32:30.213Z,28.84
2023-02-28T14:33:30.197Z,28.76
2023-02-28T14:34:30.224Z,28.74
2023-02-28T14:35:30.268Z,28.74
2023-02-28T14:36:30.520Z,28.65
2023-02-28T14:37:30.299Z,28.56
2023-02-28T14:38:30.329Z,28.56
2023-02-28T14:39:30.361Z,28.57
2023-02-28T14:40:30.389Z,28.53
2023-02-28T14:41:30.423Z,28.47
2023-02-28T14:42:30.448Z,28.49
2023-02-28T14:43:30.483Z,28.52
2023-02-28T14:44:30.531Z,28.47
2023-02-28T14:45:30.556Z,28.43
2023-02-28T14:46:30.892Z,28.45
2023-02-28T14:47:30.642Z,28.42
2023-02-28T14:48:30.668Z,28.42
2023-02-28T14:49:30.697Z,28.36
2023-02-28T14:50:30.784Z,28.34
2023-02-28T14:51:30.758Z,28.26
2023-02-28T14:52:30.777Z,28.33
2023-02-28T14:53:30.818Z,28.33
2023-02-28T14:54:30.845Z,28.32
2023-02-28T14:55:30.888Z,28.25
2023-02-28T14:56:31.109Z,28.21
2023-02-28T14:57:30.956Z,28.14
2023-02-28T14:58:30.997Z,28.15
2023-02-28T14:59:31.991Z,28.18
2023-02-28T15:00:31.074Z,28.12
2023-02-28T15:01:31.249Z,28.05
2023-02-28T15:02:31.134Z,28.08
2023-02-28T15:03:31.240Z,28.07
2023-02-28T15:04:31.244Z,27.98
2023-02-28T15:05:31.300Z,27.96
2023-02-28T15:06:31.312Z,27.97
2023-02-28T15:07:31.340Z,27.94
2023-02-28T15:08:31.344Z,27.97
2023-02-28T15:43:33.505Z,27.42
2023-02-28T15:54:33.404Z,27.31
2023-02-28T15:55:33.348Z,27.31
2023-02-28T15:56:33.393Z,27.26
2023-02-28T15:57:33.425Z,27.31
2023-02-28T15:58:33.450Z,27.25
2023-02-28T15:59:33.519Z,27.25
2023-02-28T16:00:33.547Z,27.20
2023-02-28T16:01:33.551Z,27.20
2023-02-28T16:02:33.737Z,27.19
2023-02-28T16:03:34.010Z,27.20
2023-02-28T16:04:33.642Z,27.22
2023-02-28T16:05:33.668Z,27.16
2023-02-28T16:06:33.697Z,27.16
2023-02-28T16:07:33.765Z,27.19
2023-02-28T16:08:33.748Z,27.15
2023-02-28T16:09:35.414Z,27.20
2023-02-28T16:10:33.806Z,27.19
2023-02-28T16:11:33.841Z,27.12
2023-02-28T16:12:33.902Z,27.12
2023-02-28T16:13:33.952Z,27.12
2023-02-28T16:14:34.023Z,27.16
2023-02-28T16:15:34.088Z,27.07
2023-02-28T16:16:34.197Z,27.12
2023-02-28T16:17:34.215Z,27.10
2023-02-28T16:18:34.299Z,27.10
2023-02-28T16:19:34.814Z,27.08
2023-02-28T16:20:34.406Z,27.10
2023-02-28T16:21:34.469Z,27.07
2023-02-28T16:22:34.527Z,27.12
2023-02-28T16:23:34.656Z,27.06
2023-02-28T16:24:34.663Z,27.06
2023-02-28T16:25:34.719Z,27.05
2023-02-28T16:26:34.791Z,27.05
2023-02-28T16:27:34.862Z,27.10
2023-02-28T16:28:34.928Z,27.06
2023-02-28T16:29:35.047Z,27.07
2023-02-28T16:30:35.122Z,27.03
2023-02-28T16:31:35.129Z,27.06
2023-02-28T16:32:35.205Z,27.00
2023-02-28T16:33:35.305Z,27.03
2023-02-28T16:34:35.356Z,27.03
2023-02-28T16:35:35.420Z,27.06
2023-02-28T16:36:36.463Z,27.04
2023-02-28T16:37:35.530Z,27.04
2023-02-28T16:38:35.604Z,26.97
2023-02-28T16:39:35.670Z,27.00
2023-02-28T16:40:35.806Z,27.00
2023-02-28T16:41:35.813Z,27.00
2023-02-28T16:42:35.893Z,26.94
2023-02-28T16:43:36.028Z,26.99
2023-02-28T16:44:36.031Z,26.93
2023-02-28T16:45:36.180Z,26.93
2023-02-28T16:46:36.250Z,27.00
2023-02-28T16:47:37.024Z,26.96
2023-02-28T16:48:36.345Z,26.96
2023-02-28T16:49:36.472Z,26.91
2023-02-28T16:50:36.490Z,26.96
2023-02-28T16:51:37.010Z,26.89
2023-02-28T16:52:36.635Z,26.89
2023-02-28T16:53:36.714Z,26.89
2023-02-28T16:54:36.790Z,26.86
2023-02-28T16:55:36.879Z,26.87
2023-02-28T16:56:36.945Z,26.89
2023-02-28T16:57:37.026Z,26.82
2023-02-28T16:58:37.105Z,26.83
2023-02-28T16:59:37.171Z,26.83
2023-02-28T17:00:37.240Z,26.83
2023-02-28T17:01:37.453Z,26.83
2023-02-28T17:02:38.556Z,26.84
2023-02-28T17:03:37.523Z,26.79
2023-02-28T17:04:37.546Z,26.82
2023-02-28T17:05:37.630Z,26.79
2023-02-28T17:06:37.700Z,26.78
2023-02-28T17:07:37.784Z,26.82
2023-02-28T17:08:37.855Z,26.80
2023-02-28T17:09:43.048Z,26.80
2023-02-28T17:10:38.959Z,26.79
2023-02-28T17:11:37.998Z,26.77
2023-02-28T17:12:38.028Z,26.77
2023-02-28T17:13:38.063Z,26.81
2023-02-28T17:14:38.086Z,26.77
2023-02-28T17:15:38.235Z,26.80
2023-02-28T17:16:38.213Z,26.77
2023-02-28T17:17:38.176Z,26.79
2023-02-28T17:18:38.211Z,26.76
2023-02-28T17:19:38.232Z,26.74
2023-02-28T17:20:38.266Z,26.70
2023-02-28T17:21:38.294Z,26.74
2023-02-28T17:22:38.336Z,26.73
2023-02-28T17:23:38.384Z,26.70
2023-02-28T17:24:38.472Z,26.70
2023-02-28T17:25:38.553Z,26.66
2023-02-28T17:26:38.724Z,26.71
2023-02-28T17:27:39.050Z,26.72
2023-02-28T17:28:38.782Z,26.66
2023-02-28T17:29:38.904Z,26.65
2023-02-28T17:30:38.931Z,26.68
2023-02-28T17:31:40.286Z,26.65
2023-02-28T17:32:39.113Z,26.67
2023-02-28T17:33:39.241Z,26.66
2023-02-28T17:34:39.256Z,26.65
2023-02-28T17:35:39.351Z,26.66
2023-02-28T17:36:39.411Z,26.63
2023-02-28T17:37:39.593Z,26.67
2023-02-28T17:38:39.581Z,26.63
2023-02-28T17:39:39.663Z,26.62
2023-02-28T17:40:39.807Z,26.60
2023-02-28T17:41:40.549Z,26.62
2023-02-28T17:42:39.948Z,26.63
2023-02-28T17:43:40.003Z,26.66
2023-02-28T17:44:40.103Z,26.56
2023-02-28T17:45:40.245Z,26.60
2023-02-28T17:46:40.294Z,26.62
2023-02-28T17:47:40.329Z,26.64
2023-02-28T17:50:40.583Z,26.63
2023-02-28T18:22:43.309Z,26.39
2023-02-28T18:23:43.882Z,26.43
2023-02-28T18:24:43.494Z,26.45
2023-02-28T18:25:43.585Z,26.37
2023-02-28T18:26:43.672Z,26.42
2023-02-28T18:27:43.781Z,26.45
2023-02-28T18:28:43.865Z,26.40
2023-02-28T18:29:43.951Z,26.39
2023-02-28T18:30:44.034Z,26.40
2023-02-28T18:31:44.170Z,26.39
2023-02-28T18:32:44.221Z,26.40
2023-02-28T18:33:44.298Z,26.34
2023-02-28T18:34:44.394Z,26.35
2023-02-28T18:35:44.519Z,26.39
2023-02-28T18:36:44.569Z,26.35
2023-02-28T18:37:44.659Z,26.35
2023-02-28T18:38:44.751Z,26.37
2023-02-28T20:08:53.337Z,25.89
2023-02-28T20:09:53.447Z,25.88
2023-02-28T20:10:53.542Z,25.83
2023-02-28T20:11:53.648Z,25.82
2023-02-28T20:12:53.734Z,25.86
2023-02-28T20:13:53.853Z,25.88
2023-02-28T20:14:53.931Z,25.88
2023-02-28T20:15:54.032Z,25.85
2023-02-28T20:16:55.926Z,25.85
2023-02-28T20:17:54.163Z,25.85
2023-02-28T20:18:54.190Z,25.82
2023-02-28T20:19:54.238Z,25.85
2023-02-28T20:22:13.509Z,25.85
2023-02-28T20:23:13.506Z,25.79
2023-02-28T20:24:13.465Z,25.85
2023-02-28T20:25:13.479Z,25.81
2023-02-28T20:26:14.204Z,25.82
2023-02-28T20:27:14.197Z,25.79
2023-02-28T20:28:13.401Z,25.79
2023-02-28T20:29:13.392Z,25.78
2023-02-28T20:30:13.382Z,25.83
2023-02-28T20:31:13.392Z,25.74
2023-02-28T20:32:13.406Z,25.77
2023-02-28T20:33:13.339Z,25.79
2023-02-28T20:45:13.705Z,25.69
2023-02-28T20:55:13.725Z,25.68
2023-02-28T21:20:12.675Z,25.51
2023-02-28T22:00:14.735Z,25.27
